createdAt,value
2023-03-31T00:01:10.559Z,13.70
2023-03-31T00:03:44.801Z,14.32
2023-03-31T00:06:19.024Z,13.80
2023-03-31T00:08:52.042Z,14.25
2023-03-31T00:11:22.704Z,14.18
2023-03-31T00:13:51.063Z,14.43
2023-03-31T00:16:19.819Z,13.70
2023-03-31T00:18:51.164Z,13.93
2023-03-31T00:21:26.094Z,13.90
2023-03-31T00:23:55.855Z,14.00
2023-03-31T00:26:24.716Z,13.48
2023-03-31T00:28:53.784Z,15.50
2023-03-31T00:31:22.621Z,17.23
2023-03-31T00:33:51.365Z,17.88
2023-03-31T00:36:27.524Z,19.30
2023-03-31T00:38:56.398Z,19.08
2023-03-31T00:41:24.965Z,18.05
2023-03-31T00:44:14.505Z,15.07
2023-03-31T00:46:47.051Z,15.20
2023-03-31T00:49:20.990Z,15.20
2023-03-31T00:51:52.635Z,16.73
2023-03-31T00:54:21.599Z,16.77
2023-03-31T00:56:53.402Z,18.67
2023-03-31T00:59:22.357Z,17.52
2023-03-31T01:01:52.997Z,20.52
2023-03-31T01:04:22.698Z,20.48
2023-03-31T01:07:01.025Z,18.83
2023-03-31T01:09:35.318Z,19.75
2023-03-31T01:12:07.707Z,17.95
2023-03-31T01:14:36.241Z,16.80
2023-03-31T01:17:05.503Z,16.35
2023-03-31T01:19:46.533Z,16.08
2023-03-31T01:22:41.410Z,15.80
2023-03-31T01:25:38.842Z,14.15
2023-03-31T01:28:14.386Z,14.00
2023-03-31T01:31:19.178Z,12.68
2023-03-31T01:34:25.094Z,12.95
2023-03-31T01:37:37.779Z,12.85
2023-03-31T01:40:50.839Z,12.73
2023-03-31T01:43:24.696Z,11.77
2023-03-31T01:45:58.776Z,12.73
2023-03-31T01:48:35.427Z,13.07
2023-03-31T01:51:08.322Z,13.23
2023-03-31T01:53:42.381Z,11.52
2023-03-31T01:56:16.523Z,12.93
2023-03-31T01:58:52.574Z,11.88
2023-03-31T02:01:25.512Z,12.93
2023-03-31T02:03:57.008Z,12.52
2023-03-31T02:06:30.774Z,12.02
2023-03-31T02:09:02.437Z,12.10
2023-03-31T02:11:32.478Z,12.02
2023-03-31T02:14:03.953Z,11.68
2023-03-31T02:16:34.858Z,11.45
2023-03-31T02:19:06.163Z,11.75
2023-03-31T02:21:36.469Z,11.63
2023-03-31T02:24:08.638Z,11.30
2023-03-31T02:26:39.531Z,10.57
2023-03-31T02:29:09.383Z,11.05
2023-03-31T02:31:44.035Z,11.65
2023-03-31T02:34:12.797Z,11.52
2023-03-31T02:36:42.428Z,11.75
2023-03-31T02:39:13.943Z,11.23
2023-03-31T02:41:42.988Z,10.90
2023-03-31T02:44:13.299Z,12.00
2023-03-31T02:46:42.246Z,10.68
2023-03-31T02:49:12.083Z,10.95
2023-03-31T02:52:06.521Z,10.23
2023-03-31T02:54:49.575Z,10.23
2023-03-31T02:57:29.704Z,10.15
2023-03-31T03:00:09.573Z,10.38
2023-03-31T03:02:45.712Z,10.80
2023-03-31T03:05:26.343Z,10.18
2023-03-31T03:08:00.056Z,10.15
2023-03-31T03:10:31.990Z,10.30
2023-03-31T03:13:07.952Z,10.32
2023-03-31T03:15:39.346Z,10.45
2023-03-31T03:18:08.283Z,9.50
2023-03-31T03:20:36.725Z,9.35
2023-03-31T03:23:05.238Z,8.68
2023-03-31T03:25:34.253Z,9.18
2023-03-31T03:28:02.890Z,8.80
2023-03-31T03:30:31.261Z,8.80
2023-03-31T03:33:01.376Z,8.70
2023-03-31T03:35:29.774Z,8.77
2023-03-31T03:37:58.363Z,8.35
2023-03-31T03:40:26.703Z,8.10
2023-03-31T03:42:55.204Z,8.68
2023-03-31T03:45:23.555Z,8.50
2023-03-31T03:47:52.290Z,9.27
2023-03-31T03:50:22.322Z,8.45
2023-03-31T03:52:50.887Z,9.00
2023-03-31T03:55:19.162Z,9.70
2023-03-31T03:57:47.728Z,9.25
2023-03-31T04:00:17.116Z,8.57
2023-03-31T04:02:45.827Z,8.90
2023-03-31T04:05:14.173Z,9.15
2023-03-31T04:07:44.218Z,9.18
2023-03-31T04:10:12.805Z,9.68
2023-03-31T04:12:41.742Z,9.02
2023-03-31T04:15:10.850Z,8.45
2023-03-31T04:17:39.428Z,9.20
2023-03-31T04:20:10.209Z,9.05
2023-03-31T04:22:41.768Z,9.63
2023-03-31T04:25:16.929Z,10.00
2023-03-31T04:27:47.019Z,8.38
2023-03-31T04:30:22.903Z,9.80
2023-03-31T04:32:53.312Z,9.82
2023-03-31T04:35:22.624Z,10.75
2023-03-31T04:37:52.634Z,11.10
2023-03-31T04:40:22.449Z,10.95
2023-03-31T04:42:51.325Z,11.95
2023-03-31T04:45:19.765Z,10.27
2023-03-31T04:47:48.478Z,12.55
2023-03-31T04:50:17.233Z,11.35
2023-03-31T04:52:46.447Z,11.68
2023-03-31T04:55:14.791Z,12.00
2023-03-31T04:57:44.979Z,12.13
2023-03-31T05:00:14.999Z,12.07
2023-03-31T05:02:43.661Z,12.70
2023-03-31T05:05:12.362Z,12.60
2023-03-31T05:07:41.218Z,12.95
2023-03-31T05:10:10.384Z,13.13
2023-03-31T05:12:39.386Z,12.73
2023-03-31T05:15:10.408Z,12.35
2023-03-31T05:17:38.990Z,13.40
2023-03-31T05:20:09.694Z,12.18
2023-03-31T05:22:40.781Z,11.77
2023-03-31T05:25:11.876Z,11.68
2023-03-31T05:27:40.416Z,11.40
2023-03-31T05:30:11.240Z,11.30
2023-03-31T05:32:40.094Z,9.75
2023-03-31T05:35:09.026Z,10.02
2023-03-31T05:37:38.514Z,9.48
2023-03-31T05:40:09.387Z,10.73
2023-03-31T05:42:38.120Z,9.32
2023-03-31T05:45:09.192Z,9.15
2023-03-31T05:47:40.005Z,8.30
2023-03-31T05:50:09.486Z,7.50
2023-03-31T05:52:38.465Z,7.50
2023-03-31T05:55:08.176Z,6.88
2023-03-31T05:57:37.153Z,7.30
2023-03-31T06:00:09.481Z,6.85
2023-03-31T06:02:41.292Z,6.43
2023-03-31T06:05:10.407Z,6.15
2023-03-31T06:07:39.246Z,7.15
2023-03-31T06:10:11.012Z,7.30
2023-03-31T06:12:40.305Z,7.03
2023-03-31T06:15:10.219Z,7.15
2023-03-31T06:17:40.920Z,6.27
2023-03-31T06:20:24.080Z,6.90
2023-03-31T06:22:56.294Z,6.28
2023-03-31T06:25:24.748Z,6.32
2023-03-31T06:27:53.958Z,5.75
2023-03-31T06:30:23.015Z,5.50
2023-03-31T06:32:53.204Z,5.18
2023-03-31T06:35:21.587Z,5.85
2023-03-31T06:37:50.523Z,4.70
2023-03-31T06:40:19.206Z,4.30
2023-03-31T06:42:47.946Z,5.20
2023-03-31T06:45:16.604Z,4.38
2023-03-31T06:47:45.524Z,3.88
2023-03-31T06:50:15.491Z,4.38
2023-03-31T06:52:44.318Z,4.50
2023-03-31T06:55:13.452Z,4.93
2023-03-31T06:57:42.471Z,4.75
2023-03-31T07:00:11.899Z,5.55
2023-03-31T07:02:41.032Z,4.55
2023-03-31T07:05:11.709Z,4.40
2023-03-31T07:07:42.893Z,3.70
2023-03-31T07:10:13.218Z,3.42
2023-03-31T07:12:41.911Z,3.40
2023-03-31T07:15:11.482Z,3.10
2023-03-31T07:17:42.168Z,3.30
2023-03-31T07:20:15.129Z,3.33
2023-03-31T07:22:47.187Z,4.53
2023-03-31T07:25:18.124Z,3.45
2023-03-31T07:27:47.049Z,3.45
2023-03-31T07:30:17.666Z,3.35
2023-03-31T07:35:20.057Z,3.05
2023-03-31T07:37:51.448Z,2.70
2023-03-31T07:40:22.672Z,2.70
2023-03-31T07:42:52.396Z,2.90
2023-03-31T07:45:21.828Z,2.35
2023-03-31T07:47:51.180Z,2.28
2023-03-31T07:50:20.555Z,2.38
2023-03-31T07:52:50.818Z,2.53
2023-03-31T07:55:20.144Z,2.00
2023-03-31T07:57:52.096Z,2.05
2023-03-31T08:00:21.532Z,2.20
2023-03-31T08:02:50.290Z,1.90
2023-03-31T08:05:20.920Z,2.20
2023-03-31T08:07:52.080Z,1.83
2023-03-31T08:12:50.367Z,2.05
2023-03-31T08:15:19.543Z,2.42
2023-03-31T08:17:48.432Z,2.20
2023-03-31T08:20:16.995Z,2.20
2023-03-31T08:22:46.010Z,2.90
2023-03-31T08:25:16.463Z,2.47
2023-03-31T08:27:46.721Z,2.78
2023-03-31T08:30:15.588Z,2.05
2023-03-31T08:32:44.597Z,2.30
2023-03-31T08:35:13.123Z,2.30
2023-03-31T08:37:42.071Z,2.40
2023-03-31T08:40:18.106Z,3.58
2023-03-31T08:42:49.229Z,2.90
2023-03-31T08:45:22.372Z,2.08
2023-03-31T08:47:54.122Z,2.42
2023-03-31T08:50:27.217Z,2.75
2023-03-31T08:53:01.285Z,3.20
2023-03-31T08:55:37.127Z,2.92
2023-03-31T08:58:10.831Z,3.30
2023-03-31T09:00:44.875Z,2.53
2023-03-31T09:03:18.467Z,2.58
2023-03-31T09:06:00.733Z,2.50
2023-03-31T09:08:38.429Z,2.55
2023-03-31T09:11:16.652Z,3.95
2023-03-31T09:14:02.213Z,3.55
2023-03-31T09:16:35.293Z,3.15
2023-03-31T09:19:04.495Z,3.22
2023-03-31T09:21:34.481Z,2.92
2023-03-31T09:24:08.266Z,3.33
2023-03-31T09:26:44.157Z,2.80
2023-03-31T09:29:19.462Z,3.15
2023-03-31T09:31:48.644Z,2.72
2023-03-31T09:34:21.230Z,2.20
2023-03-31T09:36:49.604Z,1.95
2023-03-31T09:39:18.431Z,2.83
2023-03-31T09:41:50.664Z,2.58
2023-03-31T09:44:32.260Z,2.33
2023-03-31T09:47:01.156Z,2.20
2023-03-31T09:49:30.454Z,2.47
2023-03-31T09:52:07.843Z,2.83
2023-03-31T09:54:39.071Z,3.10
2023-03-31T09:57:17.633Z,2.90
2023-03-31T09:59:52.622Z,3.42
2023-03-31T10:02:29.941Z,3.75
2023-03-31T10:04:59.023Z,2.95
2023-03-31T10:07:27.848Z,3.45
2023-03-31T10:09:57.501Z,4.00
2023-03-31T10:12:29.938Z,4.40
2023-03-31T10:15:14.452Z,3.25
2023-03-31T10:17:55.019Z,3.45
2023-03-31T10:20:35.501Z,3.20
2023-03-31T10:23:06.798Z,3.15
2023-03-31T10:25:36.452Z,6.72
2023-03-31T10:28:06.593Z,4.35
2023-03-31T10:30:38.370Z,3.97
2023-03-31T10:33:22.078Z,3.13
2023-03-31T10:35:55.998Z,2.60
2023-03-31T10:38:28.409Z,2.30
2023-03-31T10:40:58.050Z,2.38
2023-03-31T10:43:29.864Z,2.42
2023-03-31T10:46:00.271Z,4.38
2023-03-31T10:48:30.844Z,3.08
2023-03-31T10:51:07.262Z,3.20
2023-03-31T10:53:42.340Z,2.85
2023-03-31T10:56:20.638Z,3.00
2023-03-31T10:59:05.311Z,2.92
2023-03-31T11:01:45.640Z,2.90
2023-03-31T11:04:43.521Z,2.40
2023-03-31T11:07:18.854Z,2.40
2023-03-31T11:10:00.478Z,2.90
2023-03-31T11:12:34.477Z,2.90
2023-03-31T11:15:14.632Z,3.05
2023-03-31T11:17:56.424Z,3.78
2023-03-31T11:20:31.034Z,3.42
2023-03-31T11:23:03.997Z,2.72
2023-03-31T11:25:40.455Z,2.53
2023-03-31T11:28:33.585Z,2.90
2023-03-31T11:31:14.214Z,2.63
2023-03-31T11:33:55.359Z,2.45
2023-03-31T11:36:41.798Z,2.58
2023-03-31T11:39:26.003Z,3.60
2023-03-31T11:41:59.673Z,4.75
2023-03-31T11:44:30.831Z,2.60
2023-03-31T11:47:03.843Z,3.00
2023-03-31T11:49:38.499Z,3.38
2023-03-31T11:52:10.889Z,2.83
2023-03-31T11:54:43.889Z,2.67
2023-03-31T11:57:15.214Z,4.53
2023-03-31T11:59:45.530Z,3.35
2023-03-31T12:02:19.249Z,3.20
2023-03-31T12:04:51.125Z,2.88
2023-03-31T12:07:25.309Z,3.58
2023-03-31T12:10:06.064Z,2.58
2023-03-31T12:12:37.325Z,2.97
2023-03-31T12:17:41.866Z,2.58
2023-03-31T12:20:26.961Z,3.80
2023-03-31T12:22:56.368Z,3.60
2023-03-31T12:25:26.793Z,24.80
2023-03-31T12:27:56.651Z,18.27
2023-03-31T12:30:30.515Z,8.63
2023-03-31T12:33:02.987Z,3.58
2023-03-31T12:35:39.222Z,10.55
2023-03-31T12:38:20.654Z,11.13
2023-03-31T12:40:57.977Z,8.48
2023-03-31T12:43:38.742Z,9.20
2023-03-31T12:46:19.371Z,10.43
2023-03-31T12:49:00.795Z,7.07
2023-03-31T12:51:43.724Z,5.70
2023-03-31T12:54:23.672Z,4.15
2023-03-31T12:57:06.883Z,1.90
2023-03-31T12:59:36.585Z,2.10
2023-03-31T13:02:21.744Z,2.10
2023-03-31T13:04:52.111Z,3.38
2023-03-31T13:07:39.371Z,1.75
2023-03-31T13:10:30.232Z,2.40
2023-03-31T13:13:03.823Z,1.98
2023-03-31T13:15:32.940Z,2.05
2023-03-31T13:18:04.557Z,3.20
2023-03-31T13:20:38.692Z,2.80
2023-03-31T13:23:17.502Z,2.15
2023-03-31T13:25:47.339Z,2.35
2023-03-31T13:28:26.945Z,2.67
2023-03-31T13:30:58.043Z,2.25
2023-03-31T13:33:30.498Z,2.25
2023-03-31T13:36:29.672Z,2.17
2023-03-31T13:39:11.114Z,1.70
2023-03-31T13:41:51.370Z,1.90
2023-03-31T13:44:55.913Z,2.42
2023-03-31T13:47:47.772Z,2.50
2023-03-31T13:50:39.272Z,2.55
2023-03-31T13:53:21.681Z,1.67
2023-03-31T13:56:14.549Z,2.13
2023-03-31T13:59:04.726Z,1.70
2023-03-31T14:01:45.161Z,2.20
2023-03-31T14:04:24.079Z,2.00
2023-03-31T14:06:56.196Z,1.77
2023-03-31T14:09:28.564Z,3.05
2023-03-31T14:12:00.185Z,1.90
2023-03-31T14:14:29.899Z,2.05
2023-03-31T14:17:00.863Z,2.67
2023-03-31T14:19:44.504Z,2.05
2023-03-31T14:22:19.679Z,2.45
2023-03-31T14:24:53.588Z,2.15
2023-03-31T14:27:32.487Z,2.10
2023-03-31T14:30:03.320Z,7.72
2023-03-31T14:32:37.063Z,2.42
2023-03-31T14:35:23.905Z,10.20
2023-03-31T14:37:52.811Z,2.80
2023-03-31T14:40:22.692Z,3.22
2023-03-31T14:42:51.425Z,4.00
2023-03-31T14:45:22.184Z,2.83
2023-03-31T14:47:58.206Z,3.40
2023-03-31T14:50:31.448Z,3.83
2023-03-31T14:53:01.484Z,4.10
2023-03-31T14:55:54.333Z,10.98
2023-03-31T14:58:27.284Z,5.60
2023-03-31T15:00:56.269Z,4.80
2023-03-31T15:03:27.615Z,3.60
2023-03-31T15:05:58.754Z,8.00
2023-03-31T15:11:11.982Z,3.75
2023-03-31T15:13:46.865Z,2.72
2023-03-31T15:16:22.822Z,5.50
2023-03-31T15:18:55.418Z,5.20
2023-03-31T15:21:25.914Z,5.82
2023-03-31T15:23:56.696Z,3.45
2023-03-31T15:26:40.452Z,4.07
2023-03-31T15:29:13.782Z,9.38
2023-03-31T15:31:42.835Z,6.90
2023-03-31T15:34:17.124Z,4.95
2023-03-31T15:36:46.056Z,5.72
2023-03-31T15:39:16.285Z,4.25
2023-03-31T15:41:48.273Z,9.65
2023-03-31T15:44:40.386Z,6.18
2023-03-31T15:47:15.159Z,9.05
2023-03-31T15:49:52.484Z,22.75
2023-03-31T15:52:28.778Z,6.38
2023-03-31T15:54:57.907Z,7.18
2023-03-31T15:57:34.703Z,4.90
2023-03-31T16:00:07.382Z,6.15
2023-03-31T16:02:41.990Z,5.65
2023-03-31T16:05:26.872Z,4.68
2023-03-31T16:07:56.842Z,3.97
2023-03-31T16:10:26.798Z,4.78
2023-03-31T16:12:59.610Z,4.78
2023-03-31T16:15:32.380Z,5.30
2023-03-31T16:18:03.068Z,6.68
2023-03-31T16:20:37.308Z,10.43
2023-03-31T16:23:14.500Z,8.05
2023-03-31T16:25:43.795Z,25.67
2023-03-31T16:28:17.365Z,16.77
2023-03-31T16:30:46.709Z,17.63
2023-03-31T16:33:17.783Z,13.13
2023-03-31T16:35:51.158Z,13.80
2023-03-31T16:38:19.845Z,13.70
2023-03-31T16:40:50.316Z,6.55
2023-03-31T16:43:21.526Z,11.20
2023-03-31T16:45:51.806Z,15.85
2023-03-31T16:48:21.728Z,4.47
2023-03-31T16:50:53.224Z,13.50
2023-03-31T16:53:23.391Z,8.07
2023-03-31T16:55:52.527Z,7.00
2023-03-31T16:58:24.159Z,17.63
2023-03-31T17:00:53.579Z,33.33
2023-03-31T17:03:22.357Z,6.68
2023-03-31T17:05:53.170Z,11.27
2023-03-31T17:08:23.329Z,7.53
2023-03-31T17:10:53.300Z,9.45
2023-03-31T17:13:23.563Z,19.52
2023-03-31T17:15:58.319Z,13.90
2023-03-31T17:18:37.535Z,7.82
2023-03-31T17:21:07.780Z,6.55
2023-03-31T17:23:36.394Z,6.05
2023-03-31T17:26:06.456Z,6.95
2023-03-31T17:28:37.088Z,10.25
2023-03-31T17:31:12.831Z,10.38
2023-03-31T17:33:42.039Z,6.45
2023-03-31T17:36:11.256Z,6.18
2023-03-31T17:38:40.078Z,12.32
2023-03-31T17:41:11.220Z,14.20
2023-03-31T17:43:41.590Z,16.30
2023-03-31T17:46:12.845Z,16.92
2023-03-31T17:51:13.936Z,17.55
2023-03-31T17:53:43.104Z,16.67
2023-03-31T17:56:12.613Z,12.68
2023-03-31T17:58:42.817Z,12.63
2023-03-31T18:01:13.705Z,7.22
2023-03-31T18:03:42.401Z,6.10
2023-03-31T18:06:12.853Z,5.35
2023-03-31T18:08:42.983Z,5.43
2023-03-31T18:11:11.878Z,6.15
2023-03-31T18:13:40.760Z,6.93
2023-03-31T18:16:13.096Z,6.75
2023-03-31T18:18:42.792Z,7.63
2023-03-31T18:21:13.218Z,6.47
2023-03-31T18:23:41.756Z,5.25
2023-03-31T18:26:11.905Z,5.85
2023-03-31T18:28:41.024Z,6.32
2023-03-31T18:31:12.698Z,6.18
2023-03-31T18:33:41.882Z,5.85
2023-03-31T18:36:17.014Z,17.17
2023-03-31T18:38:45.619Z,6.30
2023-03-31T18:41:14.481Z,8.23
2023-03-31T18:43:43.578Z,7.32
2023-03-31T18:46:14.632Z,11.15
2023-03-31T18:48:43.240Z,15.23
2023-03-31T18:51:12.518Z,4.90
2023-03-31T18:53:41.701Z,4.60
2023-03-31T18:56:10.674Z,4.20
2023-03-31T18:58:39.302Z,4.90
2023-03-31T19:01:08.441Z,4.90
2023-03-31T19:03:39.408Z,5.22
2023-03-31T19:06:10.700Z,6.07
2023-03-31T19:08:39.695Z,6.43
2023-03-31T19:11:09.674Z,5.95
2023-03-31T19:13:39.086Z,6.13
2023-03-31T19:16:08.994Z,6.93
2023-03-31T19:18:41.098Z,7.45
2023-03-31T19:21:10.676Z,6.55
2023-03-31T19:23:39.556Z,6.78
2023-03-31T19:26:09.358Z,6.65
2023-03-31T19:28:38.273Z,7.35
2023-03-31T19:31:08.085Z,6.88
2023-03-31T19:33:36.925Z,7.22
2023-03-31T19:36:08.112Z,8.20
2023-03-31T19:38:37.037Z,7.82
2023-03-31T19:41:06.754Z,7.13
2023-03-31T19:43:35.711Z,7.03
2023-03-31T19:46:04.813Z,8.27
2023-03-31T19:48:35.973Z,7.75
2023-03-31T19:51:08.594Z,8.95
2023-03-31T19:53:39.154Z,9.38
2023-03-31T19:56:09.909Z,10.35
2023-03-31T19:58:38.992Z,11.50
2023-03-31T20:01:14.259Z,11.77
2023-03-31T20:03:42.823Z,12.85
2023-03-31T20:06:14.431Z,13.10
2023-03-31T20:08:43.999Z,13.55
2023-03-31T20:11:15.412Z,13.52
2023-03-31T20:13:45.062Z,13.30
2023-03-31T20:16:15.766Z,14.18
2023-03-31T20:18:48.352Z,14.35
2023-03-31T20:21:20.696Z,13.43
2023-03-31T20:23:49.986Z,14.23
2023-03-31T20:26:20.891Z,12.15
2023-03-31T20:28:49.658Z,12.90
2023-03-31T20:31:21.221Z,13.10
2023-03-31T20:33:50.799Z,12.77
2023-03-31T20:36:22.426Z,11.35
2023-03-31T20:38:53.975Z,9.25
2023-03-31T20:41:24.513Z,8.57
2023-03-31T20:43:53.129Z,6.88
2023-03-31T20:46:22.808Z,6.35
2023-03-31T20:48:52.702Z,5.60
2023-03-31T20:51:24.867Z,5.35
2023-03-31T20:53:54.411Z,4.28
2023-03-31T20:56:25.408Z,4.28
2023-03-31T20:58:55.319Z,4.20
2023-03-31T21:01:25.011Z,4.38
2023-03-31T21:03:55.046Z,3.92
2023-03-31T21:06:25.728Z,3.90
2023-03-31T21:08:55.363Z,4.30
2023-03-31T21:11:24.440Z,3.53
2023-03-31T21:13:53.444Z,3.38
2023-03-31T21:16:22.575Z,4.25
2023-03-31T21:18:54.869Z,3.67
2023-03-31T21:21:25.745Z,4.18
2023-03-31T21:23:54.732Z,4.17
2023-03-31T21:26:25.056Z,5.15
2023-03-31T21:28:55.010Z,4.57
2023-03-31T21:31:25.283Z,3.83
2023-03-31T21:33:57.855Z,4.10
2023-03-31T21:36:28.169Z,3.78
2023-03-31T21:38:58.036Z,3.67
2023-03-31T21:41:28.210Z,3.85
2023-03-31T21:44:00.604Z,4.20
2023-03-31T21:46:33.534Z,3.53
2023-03-31T21:49:02.878Z,4.03
2023-03-31T21:51:33.044Z,3.35
2023-03-31T21:54:01.961Z,3.67
2023-03-31T21:56:32.069Z,3.30
2023-03-31T21:59:01.277Z,3.20
2023-03-31T22:01:30.173Z,3.15
2023-03-31T22:04:00.595Z,3.08
2023-03-31T22:06:29.789Z,3.10
2023-03-31T22:08:59.717Z,3.15
2023-03-31T22:11:28.630Z,3.13
2023-03-31T22:13:58.080Z,2.70
2023-03-31T22:16:27.061Z,2.90
2023-03-31T22:18:56.025Z,3.03
2023-03-31T22:21:26.488Z,2.70
2023-03-31T22:23:56.330Z,2.85
2023-03-31T22:26:27.319Z,2.95
2023-03-31T22:28:56.046Z,2.87
2023-03-31T22:31:26.337Z,3.50
2023-03-31T22:33:54.822Z,3.60
2023-03-31T22:36:23.453Z,3.75
2023-03-31T22:38:51.716Z,3.25
2023-03-31T22:41:20.832Z,3.70
2023-03-31T22:43:51.097Z,3.42
2023-03-31T22:46:19.716Z,2.85
2023-03-31T22:48:50.518Z,2.75
2023-03-31T22:51:19.395Z,2.75
2023-03-31T22:53:51.201Z,3.13
2023-03-31T22:56:21.110Z,3.10
2023-03-31T22:58:51.180Z,2.90
2023-03-31T23:01:22.049Z,3.22
2023-03-31T23:03:50.536Z,2.80
2023-03-31T23:06:19.427Z,2.90
2023-03-31T23:08:49.099Z,2.95
2023-03-31T23:11:18.902Z,3.30
2023-03-31T23:13:47.801Z,3.40
2023-03-31T23:16:20.937Z,3.75
2023-03-31T23:18:50.109Z,3.85
2023-03-31T23:21:21.903Z,3.88
2023-03-31T23:26:20.494Z,4.57
2023-03-31T23:28:49.773Z,4.60
2023-03-31T23:31:21.001Z,4.95
2023-03-31T23:33:49.807Z,4.25
2023-03-31T23:36:21.096Z,4.50
2023-03-31T23:38:49.893Z,5.00
2023-03-31T23:41:18.843Z,5.97
2023-03-31T23:43:48.030Z,6.10
2023-03-31T23:46:16.827Z,5.65
2023-03-31T23:48:46.837Z,6.07
2023-03-31T23:51:15.514Z,5.82
2023-03-31T23:53:43.908Z,5.82
2023-03-31T23:56:14.447Z,5.20
2023-03-31T23:58:43.138Z,4.68
